TAM3788 SBRJ-SBBR
Flight info
| Callsign | TAM3788 |
|---|---|
| Flight time | 1h 32m |
| Altitude | 38000 |
| Route | MUDKA UM409 ISIPI |
| Aircraft | A319/M-SDE3FGHIRWY/LB1 |
Departure
| Time | 2026-04-30 21:00 |
|---|---|
| Airport | Santos Dumont Airport (SBRJ) |
Arrival
| Time | 2026-04-30 22:32 |
|---|---|
| Airport | Presidente Juscelino Kubitschek International Airport (SBBR) |
| Time | Latitude | Longitude | Altitude | Speed | Heading |
|---|---|---|---|---|---|
| 2026-04-30 20:47 | -22.91208 | -43.16583 | 24 ft | 0 kts | 266° |
| 2026-04-30 20:53 | -22.91207 | -43.16573 | 25 ft | 4 kts | 266° |
| 2026-04-30 20:53 | -22.91206 | -43.16544 | 25 ft | 4 kts | 275° |
| 2026-04-30 20:54 | -22.91231 | -43.16511 | 22 ft | 1 kts | 356° |
| 2026-04-30 20:54 | -22.91235 | -43.16510 | 22 ft | 0 kts | 356° |
| 2026-04-30 20:56 | -22.91223 | -43.16511 | 22 ft | 6 kts | 356° |
| 2026-04-30 20:56 | -22.91040 | -43.16535 | 22 ft | 20 kts | 353° |
| 2026-04-30 20:57 | -22.90892 | -43.16549 | 22 ft | 23 kts | 355° |
| 2026-04-30 20:57 | -22.90728 | -43.16551 | 22 ft | 25 kts | 3° |
| 2026-04-30 20:57 | -22.90549 | -43.16556 | 22 ft | 26 kts | 357° |
| 2026-04-30 20:58 | -22.90468 | -43.16336 | 26 ft | 17 kts | 86° |
| 2026-04-30 20:58 | -22.90506 | -43.16319 | 24 ft | 6 kts | 182° |
| 2026-04-30 20:58 | -22.90519 | -43.16317 | 24 ft | 2 kts | 176° |
| 2026-04-30 20:58 | -22.90542 | -43.16316 | 24 ft | 5 kts | 176° |
| 2026-04-30 20:59 | -22.91420 | -43.16256 | 34 ft | 137 kts | 176° |
| 2026-04-30 20:59 | -22.92431 | -43.16155 | 558 ft | 149 kts | 166° |
| 2026-04-30 21:00 | -22.94072 | -43.14700 | 1811 ft | 166 kts | 132° |
| 2026-04-30 21:00 | -22.95908 | -43.12638 | 2408 ft | 216 kts | 140° |
| 2026-04-30 21:01 | -22.98435 | -43.10289 | 3465 ft | 261 kts | 139° |
| 2026-04-30 21:01 | -22.99835 | -43.08977 | 4366 ft | 269 kts | 139° |
| 2026-04-30 21:01 | -23.01962 | -43.05634 | 6287 ft | 281 kts | 104° |
| 2026-04-30 21:02 | -23.02053 | -43.03507 | 7179 ft | 288 kts | 81° |
| 2026-04-30 21:02 | -23.01422 | -43.01427 | 8052 ft | 293 kts | 66° |
| 2026-04-30 21:02 | -23.00630 | -42.99378 | 8936 ft | 296 kts | 66° |
| 2026-04-30 21:02 | -22.99835 | -42.97305 | 9778 ft | 299 kts | 67° |
| 2026-04-30 21:03 | -22.99025 | -42.95186 | 10377 ft | 313 kts | 67° |
| 2026-04-30 21:03 | -22.98160 | -42.92924 | 10687 ft | 334 kts | 67° |
| 2026-04-30 21:03 | -22.97070 | -42.90699 | 11267 ft | 342 kts | 55° |
| 2026-04-30 21:03 | -22.95509 | -42.88731 | 11943 ft | 347 kts | 41° |
| 2026-04-30 21:04 | -22.93551 | -42.87187 | 12628 ft | 351 kts | 28° |
| 2026-04-30 21:04 | -22.91401 | -42.85909 | 13326 ft | 354 kts | 27° |
| 2026-04-30 21:04 | -22.86819 | -42.83924 | 14631 ft | 358 kts | 7° |
| 2026-04-30 21:05 | -22.84338 | -42.83756 | 15258 ft | 357 kts | 354° |
| 2026-04-30 21:05 | -22.81872 | -42.84103 | 15898 ft | 359 kts | 348° |
| 2026-04-30 21:05 | -22.79394 | -42.84522 | 16528 ft | 361 kts | 348° |
| 2026-04-30 21:05 | -22.76894 | -42.84937 | 17095 ft | 366 kts | 348° |
| 2026-04-30 21:06 | -22.74362 | -42.85336 | 17671 ft | 369 kts | 349° |
| 2026-04-30 21:06 | -22.72672 | -42.85592 | 18052 ft | 372 kts | 349° |
| 2026-04-30 21:06 | -22.69225 | -42.86120 | 18821 ft | 376 kts | 348° |
| 2026-04-30 21:06 | -22.67504 | -42.86398 | 19200 ft | 377 kts | 348° |
| 2026-04-30 21:07 | -22.64901 | -42.86830 | 19736 ft | 380 kts | 348° |
| 2026-04-30 21:07 | -22.62273 | -42.87274 | 20283 ft | 383 kts | 347° |
| 2026-04-30 21:07 | -22.59631 | -42.87721 | 20814 ft | 386 kts | 347° |
| 2026-04-30 21:07 | -22.56971 | -42.88168 | 21318 ft | 389 kts | 348° |
| 2026-04-30 21:08 | -22.54310 | -42.88612 | 21805 ft | 392 kts | 348° |
| 2026-04-30 21:08 | -22.51614 | -42.89060 | 22293 ft | 394 kts | 348° |
| 2026-04-30 21:08 | -22.48883 | -42.89511 | 22764 ft | 397 kts | 348° |
| 2026-04-30 21:08 | -22.46155 | -42.89963 | 23157 ft | 401 kts | 348° |
| 2026-04-30 21:09 | -22.43394 | -42.90421 | 23604 ft | 403 kts | 348° |
| 2026-04-30 21:09 | -22.40609 | -42.90881 | 24092 ft | 405 kts | 348° |
| 2026-04-30 21:09 | -22.37815 | -42.91338 | 24553 ft | 407 kts | 348° |
| 2026-04-30 21:09 | -22.35004 | -42.91799 | 24999 ft | 410 kts | 348° |
| 2026-04-30 21:10 | -22.32178 | -42.92271 | 25436 ft | 412 kts | 347° |
| 2026-04-30 21:10 | -22.29375 | -42.92741 | 25844 ft | 414 kts | 348° |
| 2026-04-30 21:10 | -22.26514 | -42.93217 | 26229 ft | 417 kts | 348° |
| 2026-04-30 21:10 | -22.23641 | -42.93694 | 26639 ft | 419 kts | 347° |
| 2026-04-30 21:11 | -22.20756 | -42.94174 | 27029 ft | 421 kts | 347° |
| 2026-04-30 21:11 | -22.17934 | -42.94968 | 27405 ft | 419 kts | 336° |
| 2026-04-30 21:11 | -22.15320 | -42.96328 | 27768 ft | 416 kts | 325° |
| 2026-04-30 21:11 | -22.13015 | -42.98196 | 28127 ft | 414 kts | 314° |
| 2026-04-30 21:12 | -22.10996 | -43.00415 | 28497 ft | 415 kts | 311° |
| 2026-04-30 21:12 | -22.08988 | -43.02665 | 28860 ft | 417 kts | 311° |
| 2026-04-30 21:12 | -22.06963 | -43.04923 | 29236 ft | 419 kts | 311° |
| 2026-04-30 21:12 | -22.04925 | -43.07185 | 29600 ft | 422 kts | 311° |
| 2026-04-30 21:13 | -22.02877 | -43.09454 | 29960 ft | 423 kts | 311° |
| 2026-04-30 21:13 | -22.00828 | -43.11722 | 30315 ft | 426 kts | 311° |
| 2026-04-30 21:13 | -21.98759 | -43.14015 | 30635 ft | 428 kts | 311° |
| 2026-04-30 21:13 | -21.96674 | -43.16328 | 30912 ft | 432 kts | 312° |
| 2026-04-30 21:14 | -21.94571 | -43.18660 | 31200 ft | 435 kts | 312° |
| 2026-04-30 21:14 | -21.92451 | -43.21011 | 31507 ft | 438 kts | 312° |
| 2026-04-30 21:14 | -21.90323 | -43.23370 | 31805 ft | 440 kts | 311° |
| 2026-04-30 21:14 | -21.88193 | -43.25732 | 32222 ft | 439 kts | 311° |
| 2026-04-30 21:15 | -21.86062 | -43.28094 | 32654 ft | 439 kts | 311° |
| 2026-04-30 21:15 | -21.83935 | -43.30446 | 33095 ft | 438 kts | 311° |
| 2026-04-30 21:15 | -21.81814 | -43.32789 | 33538 ft | 437 kts | 311° |
| 2026-04-30 21:15 | -21.79692 | -43.35131 | 33979 ft | 436 kts | 311° |
| 2026-04-30 21:16 | -21.77590 | -43.37453 | 34408 ft | 435 kts | 311° |
| 2026-04-30 21:16 | -21.75458 | -43.39764 | 34809 ft | 435 kts | 313° |
| 2026-04-30 21:16 | -21.73265 | -43.42003 | 35222 ft | 434 kts | 314° |
| 2026-04-30 21:16 | -21.71058 | -43.44158 | 35603 ft | 434 kts | 315° |
| 2026-04-30 21:17 | -21.68798 | -43.46312 | 35977 ft | 434 kts | 315° |
| 2026-04-30 21:17 | -21.66799 | -43.48206 | 36287 ft | 433 kts | 315° |
| 2026-04-30 21:17 | -21.64784 | -43.50124 | 36417 ft | 431 kts | 315° |
| 2026-04-30 21:17 | -21.63027 | -43.51816 | 36511 ft | 429 kts | 314° |
| 2026-04-30 21:18 | -21.61071 | -43.53703 | 36677 ft | 431 kts | 315° |
| 2026-04-30 21:18 | -21.59290 | -43.55454 | 36860 ft | 434 kts | 314° |
| 2026-04-30 21:18 | -21.57245 | -43.57344 | 37210 ft | 434 kts | 321° |
| 2026-04-30 21:18 | -21.55234 | -43.58763 | 37512 ft | 437 kts | 325° |
| 2026-04-30 21:19 | -21.52905 | -43.60148 | 37861 ft | 433 kts | 327° |
| 2026-04-30 21:19 | -21.50582 | -43.61558 | 38110 ft | 431 kts | 326° |
| 2026-04-30 21:19 | -21.46194 | -43.64273 | 38210 ft | 432 kts | 326° |
| 2026-04-30 21:20 | -21.41545 | -43.67141 | 38208 ft | 432 kts | 327° |
| 2026-04-30 21:20 | -21.37139 | -43.69844 | 38216 ft | 432 kts | 326° |
| 2026-04-30 21:21 | -21.32834 | -43.72613 | 38227 ft | 434 kts | 326° |
| 2026-04-30 21:22 | -21.26155 | -43.76795 | 38200 ft | 434 kts | 326° |
| 2026-04-30 21:23 | -21.15818 | -43.83480 | 38230 ft | 434 kts | 324° |
| 2026-04-30 21:23 | -21.08096 | -43.88545 | 38232 ft | 433 kts | 324° |
| 2026-04-30 21:24 | -21.02946 | -43.91898 | 38225 ft | 433 kts | 325° |
| 2026-04-30 21:24 | -20.97801 | -43.95238 | 38218 ft | 433 kts | 325° |
| 2026-04-30 21:25 | -20.90078 | -44.00249 | 38210 ft | 433 kts | 325° |
| 2026-04-30 21:26 | -20.82350 | -44.05252 | 38199 ft | 433 kts | 325° |
| 2026-04-30 21:27 | -20.74630 | -44.10266 | 38187 ft | 433 kts | 325° |
| 2026-04-30 21:27 | -20.69495 | -44.13623 | 38182 ft | 433 kts | 325° |
| 2026-04-30 21:28 | -20.61774 | -44.18665 | 38175 ft | 434 kts | 325° |
| 2026-04-30 21:29 | -20.53995 | -44.23654 | 38173 ft | 435 kts | 326° |
| 2026-04-30 21:30 | -20.41029 | -44.31971 | 38167 ft | 435 kts | 326° |
| 2026-04-30 21:31 | -20.28105 | -44.40291 | 38153 ft | 435 kts | 326° |
| 2026-04-30 21:32 | -20.20333 | -44.45285 | 38160 ft | 435 kts | 326° |
| 2026-04-30 21:32 | -20.15153 | -44.48605 | 38147 ft | 434 kts | 326° |
| 2026-04-30 21:33 | -20.07381 | -44.53586 | 38145 ft | 435 kts | 326° |
| 2026-04-30 21:34 | -20.02193 | -44.56904 | 38142 ft | 435 kts | 326° |
| 2026-04-30 21:34 | -19.94409 | -44.61884 | 38139 ft | 436 kts | 326° |
| 2026-04-30 21:35 | -19.89210 | -44.65208 | 38134 ft | 436 kts | 326° |
| 2026-04-30 21:35 | -19.84003 | -44.68524 | 38136 ft | 437 kts | 326° |
| 2026-04-30 21:36 | -19.78794 | -44.71841 | 38131 ft | 436 kts | 326° |
| 2026-04-30 21:37 | -19.68385 | -44.78492 | 38128 ft | 437 kts | 326° |
| 2026-04-30 21:37 | -19.63174 | -44.81818 | 38127 ft | 437 kts | 326° |
| 2026-04-30 21:38 | -19.57954 | -44.85134 | 38122 ft | 437 kts | 326° |
| 2026-04-30 21:38 | -19.52774 | -44.88421 | 38118 ft | 437 kts | 326° |
| 2026-04-30 21:39 | -19.47551 | -44.91735 | 38119 ft | 437 kts | 326° |
| 2026-04-30 21:39 | -19.42330 | -44.95049 | 38122 ft | 438 kts | 326° |
| 2026-04-30 21:40 | -19.37114 | -44.98360 | 38125 ft | 438 kts | 326° |
| 2026-04-30 21:40 | -19.31874 | -45.01680 | 38130 ft | 439 kts | 327° |
| 2026-04-30 21:41 | -19.26636 | -45.04996 | 38134 ft | 439 kts | 327° |
| 2026-04-30 21:41 | -19.21384 | -45.08325 | 38136 ft | 440 kts | 327° |
| 2026-04-30 21:42 | -19.16139 | -45.11643 | 38137 ft | 440 kts | 327° |
| 2026-04-30 21:42 | -19.10884 | -45.14955 | 38133 ft | 439 kts | 327° |
| 2026-04-30 21:43 | -19.06524 | -45.17712 | 38131 ft | 439 kts | 327° |
| 2026-04-30 21:43 | -19.00387 | -45.21582 | 38129 ft | 439 kts | 327° |
| 2026-04-30 21:44 | -18.95130 | -45.24903 | 38130 ft | 441 kts | 327° |
| 2026-04-30 21:44 | -18.89895 | -45.28202 | 38132 ft | 441 kts | 327° |
| 2026-04-30 21:45 | -18.84621 | -45.31524 | 38143 ft | 441 kts | 327° |
| 2026-04-30 21:45 | -18.79346 | -45.34840 | 38134 ft | 441 kts | 327° |
| 2026-04-30 21:46 | -18.74076 | -45.38150 | 38133 ft | 441 kts | 327° |
| 2026-04-30 21:46 | -18.68807 | -45.41457 | 38130 ft | 441 kts | 327° |
| 2026-04-30 21:47 | -18.64541 | -45.44146 | 38128 ft | 440 kts | 327° |
| 2026-04-30 21:47 | -18.59275 | -45.47453 | 38124 ft | 441 kts | 328° |
| 2026-04-30 21:48 | -18.54001 | -45.50749 | 38122 ft | 441 kts | 328° |
| 2026-04-30 21:48 | -18.48735 | -45.54039 | 38122 ft | 442 kts | 328° |
| 2026-04-30 21:49 | -18.43478 | -45.57384 | 38122 ft | 441 kts | 323° |
| 2026-04-30 21:49 | -18.38546 | -45.61225 | 38123 ft | 441 kts | 322° |
| 2026-04-30 21:50 | -18.33624 | -45.65083 | 38126 ft | 441 kts | 322° |
| 2026-04-30 21:50 | -18.28695 | -45.68935 | 38125 ft | 441 kts | 322° |
| 2026-04-30 21:51 | -18.23800 | -45.72751 | 38122 ft | 441 kts | 322° |
| 2026-04-30 21:51 | -18.18868 | -45.76593 | 38117 ft | 441 kts | 322° |
| 2026-04-30 21:52 | -18.13937 | -45.80433 | 38114 ft | 441 kts | 322° |
| 2026-04-30 21:52 | -18.09002 | -45.84269 | 38110 ft | 441 kts | 322° |
| 2026-04-30 21:53 | -18.04336 | -45.87898 | 38114 ft | 441 kts | 322° |
| 2026-04-30 21:53 | -17.99405 | -45.91731 | 38116 ft | 442 kts | 322° |
| 2026-04-30 21:54 | -17.95290 | -45.94924 | 38118 ft | 442 kts | 322° |
| 2026-04-30 21:54 | -17.90338 | -45.98765 | 38117 ft | 442 kts | 322° |
| 2026-04-30 21:55 | -17.85394 | -46.02603 | 38117 ft | 442 kts | 322° |
| 2026-04-30 21:55 | -17.80448 | -46.06443 | 38123 ft | 442 kts | 322° |
| 2026-04-30 21:56 | -17.75501 | -46.10279 | 38125 ft | 442 kts | 322° |
| 2026-04-30 21:56 | -17.70566 | -46.14103 | 38125 ft | 442 kts | 322° |
| 2026-04-30 21:57 | -17.65613 | -46.17931 | 38124 ft | 442 kts | 322° |
| 2026-04-30 21:57 | -17.60654 | -46.21752 | 38125 ft | 442 kts | 322° |
| 2026-04-30 21:58 | -17.55736 | -46.25546 | 38127 ft | 442 kts | 322° |
| 2026-04-30 21:58 | -17.50791 | -46.29377 | 38128 ft | 442 kts | 322° |
| 2026-04-30 21:59 | -17.45843 | -46.33201 | 38131 ft | 442 kts | 322° |
| 2026-04-30 22:00 | -17.38410 | -46.38922 | 38130 ft | 442 kts | 323° |
| 2026-04-30 22:00 | -17.30978 | -46.44637 | 38141 ft | 442 kts | 323° |
| 2026-04-30 22:01 | -17.26030 | -46.48458 | 38135 ft | 442 kts | 323° |
| 2026-04-30 22:01 | -17.21076 | -46.52259 | 38135 ft | 441 kts | 323° |
| 2026-04-30 22:02 | -17.16138 | -46.56050 | 38133 ft | 441 kts | 323° |
| 2026-04-30 22:02 | -17.11226 | -46.59896 | 38131 ft | 441 kts | 320° |
| 2026-04-30 22:03 | -17.06547 | -46.64028 | 38131 ft | 440 kts | 318° |
| 2026-04-30 22:03 | -17.01955 | -46.68273 | 38131 ft | 440 kts | 318° |
| 2026-04-30 22:04 | -16.97326 | -46.72461 | 38130 ft | 440 kts | 319° |
| 2026-04-30 22:05 | -16.90354 | -46.78636 | 38126 ft | 440 kts | 319° |
| 2026-04-30 22:05 | -16.85687 | -46.82778 | 38124 ft | 440 kts | 319° |
| 2026-04-30 22:06 | -16.81019 | -46.86914 | 38126 ft | 440 kts | 319° |
| 2026-04-30 22:06 | -16.76359 | -46.91043 | 37919 ft | 440 kts | 319° |
| 2026-04-30 22:06 | -16.74042 | -46.93097 | 37274 ft | 444 kts | 319° |
| 2026-04-30 22:07 | -16.71695 | -46.95180 | 36857 ft | 442 kts | 319° |
| 2026-04-30 22:07 | -16.69373 | -46.97242 | 36418 ft | 439 kts | 319° |
| 2026-04-30 22:07 | -16.67052 | -46.99301 | 35980 ft | 437 kts | 319° |
| 2026-04-30 22:07 | -16.64745 | -47.01345 | 35547 ft | 434 kts | 319° |
| 2026-04-30 22:08 | -16.62448 | -47.03379 | 35082 ft | 432 kts | 319° |
| 2026-04-30 22:08 | -16.60164 | -47.05403 | 34620 ft | 430 kts | 319° |
| 2026-04-30 22:08 | -16.57887 | -47.07419 | 34142 ft | 428 kts | 319° |
| 2026-04-30 22:08 | -16.55623 | -47.09423 | 33682 ft | 426 kts | 319° |
| 2026-04-30 22:09 | -16.53366 | -47.11419 | 33213 ft | 424 kts | 319° |
| 2026-04-30 22:09 | -16.51120 | -47.13403 | 32748 ft | 422 kts | 320° |
| 2026-04-30 22:09 | -16.48883 | -47.15377 | 32288 ft | 420 kts | 320° |
| 2026-04-30 22:09 | -16.46656 | -47.17343 | 31828 ft | 418 kts | 320° |
| 2026-04-30 22:10 | -16.44452 | -47.19289 | 31384 ft | 416 kts | 320° |
| 2026-04-30 22:10 | -16.42252 | -47.21231 | 30945 ft | 414 kts | 320° |
| 2026-04-30 22:10 | -16.40061 | -47.23167 | 30505 ft | 412 kts | 320° |
| 2026-04-30 22:10 | -16.37874 | -47.25091 | 30087 ft | 410 kts | 321° |
| 2026-04-30 22:11 | -16.33470 | -47.28808 | 29268 ft | 405 kts | 322° |
| 2026-04-30 22:11 | -16.31265 | -47.30626 | 28869 ft | 403 kts | 323° |
| 2026-04-30 22:11 | -16.29072 | -47.32435 | 28474 ft | 401 kts | 322° |
| 2026-04-30 22:12 | -16.26899 | -47.34234 | 28086 ft | 399 kts | 322° |
| 2026-04-30 22:12 | -16.24737 | -47.36033 | 27694 ft | 397 kts | 322° |
| 2026-04-30 22:12 | -16.22590 | -47.37825 | 27287 ft | 394 kts | 322° |
| 2026-04-30 22:12 | -16.20462 | -47.39604 | 26884 ft | 392 kts | 322° |
| 2026-04-30 22:13 | -16.18344 | -47.41376 | 26484 ft | 389 kts | 322° |
| 2026-04-30 22:13 | -16.16244 | -47.43134 | 26058 ft | 386 kts | 322° |
| 2026-04-30 22:13 | -16.14161 | -47.44878 | 25633 ft | 383 kts | 322° |
| 2026-04-30 22:13 | -16.12095 | -47.46605 | 25211 ft | 380 kts | 323° |
| 2026-04-30 22:14 | -16.10039 | -47.48320 | 24780 ft | 378 kts | 323° |
| 2026-04-30 22:14 | -16.07997 | -47.50019 | 24348 ft | 375 kts | 323° |
| 2026-04-30 22:14 | -16.05970 | -47.51708 | 23906 ft | 372 kts | 323° |
| 2026-04-30 22:14 | -16.03955 | -47.53388 | 23471 ft | 370 kts | 323° |
| 2026-04-30 22:15 | -16.01956 | -47.55055 | 23038 ft | 367 kts | 323° |
| 2026-04-30 22:15 | -15.99971 | -47.56709 | 22602 ft | 365 kts | 323° |
| 2026-04-30 22:15 | -15.98033 | -47.58320 | 22177 ft | 362 kts | 323° |
| 2026-04-30 22:15 | -15.96156 | -47.60059 | 21748 ft | 361 kts | 314° |
| 2026-04-30 22:16 | -15.94654 | -47.62142 | 21322 ft | 360 kts | 302° |
| 2026-04-30 22:16 | -15.93519 | -47.64458 | 20896 ft | 359 kts | 297° |
| 2026-04-30 22:17 | -15.90254 | -47.71366 | 19622 ft | 353 kts | 297° |
| 2026-04-30 22:17 | -15.89167 | -47.73650 | 19199 ft | 351 kts | 297° |
| 2026-04-30 22:17 | -15.87014 | -47.78167 | 18357 ft | 347 kts | 297° |
| 2026-04-30 22:18 | -15.85949 | -47.80397 | 17941 ft | 345 kts | 297° |
| 2026-04-30 22:18 | -15.83827 | -47.84840 | 17113 ft | 342 kts | 297° |
| 2026-04-30 22:19 | -15.81734 | -47.89235 | 16300 ft | 338 kts | 297° |
| 2026-04-30 22:19 | -15.80696 | -47.91416 | 15893 ft | 336 kts | 297° |
| 2026-04-30 22:19 | -15.78646 | -47.95721 | 15362 ft | 324 kts | 297° |
| 2026-04-30 22:20 | -15.77761 | -47.97794 | 15234 ft | 315 kts | 288° |
| 2026-04-30 22:20 | -15.77506 | -48.02190 | 14848 ft | 304 kts | 265° |
| 2026-04-30 22:20 | -15.77651 | -48.04360 | 14539 ft | 302 kts | 266° |
| 2026-04-30 22:21 | -15.77794 | -48.06531 | 14204 ft | 300 kts | 266° |
| 2026-04-30 22:21 | -15.77935 | -48.08687 | 13676 ft | 298 kts | 266° |
| 2026-04-30 22:21 | -15.78074 | -48.10832 | 13157 ft | 297 kts | 266° |
| 2026-04-30 22:21 | -15.78209 | -48.12958 | 12655 ft | 295 kts | 266° |
| 2026-04-30 22:22 | -15.78342 | -48.15075 | 12149 ft | 293 kts | 266° |
| 2026-04-30 22:22 | -15.78477 | -48.17186 | 11644 ft | 291 kts | 266° |
| 2026-04-30 22:22 | -15.78622 | -48.19270 | 11150 ft | 288 kts | 262° |
| 2026-04-30 22:22 | -15.79243 | -48.21209 | 10653 ft | 282 kts | 236° |
| 2026-04-30 22:23 | -15.80543 | -48.22682 | 10145 ft | 274 kts | 211° |
| 2026-04-30 22:23 | -15.82244 | -48.23464 | 9650 ft | 267 kts | 188° |
| 2026-04-30 22:23 | -15.84076 | -48.23680 | 9141 ft | 265 kts | 180° |
| 2026-04-30 22:23 | -15.85908 | -48.23768 | 8654 ft | 262 kts | 178° |
| 2026-04-30 22:24 | -15.87723 | -48.23748 | 8187 ft | 260 kts | 173° |
| 2026-04-30 22:24 | -15.89387 | -48.23209 | 7723 ft | 248 kts | 140° |
| 2026-04-30 22:24 | -15.90350 | -48.21801 | 7216 ft | 241 kts | 103° |
| 2026-04-30 22:24 | -15.90366 | -48.20080 | 6666 ft | 240 kts | 83° |
| 2026-04-30 22:25 | -15.90145 | -48.18372 | 6193 ft | 237 kts | 82° |
| 2026-04-30 22:25 | -15.89908 | -48.16681 | 5822 ft | 233 kts | 82° |
| 2026-04-30 22:25 | -15.89666 | -48.15066 | 5734 ft | 219 kts | 78° |
| 2026-04-30 22:25 | -15.89381 | -48.13557 | 5644 ft | 206 kts | 82° |
| 2026-04-30 22:26 | -15.89137 | -48.10769 | 5507 ft | 179 kts | 86° |
| 2026-04-30 22:26 | -15.89058 | -48.09554 | 5433 ft | 157 kts | 86° |
| 2026-04-30 22:26 | -15.88990 | -48.08493 | 5390 ft | 143 kts | 85° |
| 2026-04-30 22:27 | -15.88927 | -48.07487 | 5353 ft | 137 kts | 87° |
| 2026-04-30 22:27 | -15.88865 | -48.06506 | 5314 ft | 136 kts | 88° |
| 2026-04-30 22:27 | -15.88740 | -48.04553 | 5238 ft | 136 kts | 88° |
| 2026-04-30 22:28 | -15.88616 | -48.02597 | 5097 ft | 136 kts | 88° |
| 2026-04-30 22:28 | -15.88554 | -48.01623 | 4945 ft | 135 kts | 88° |
| 2026-04-30 22:29 | -15.88370 | -47.98739 | 4431 ft | 133 kts | 88° |
| 2026-04-30 22:29 | -15.88308 | -47.97778 | 4262 ft | 133 kts | 88° |
| 2026-04-30 22:30 | -15.88064 | -47.93946 | 3546 ft | 132 kts | 87° |
| 2026-04-30 22:31 | -15.87950 | -47.92199 | 3470 ft | 52 kts | 86° |
| 2026-04-30 22:32 | -15.87752 | -47.91612 | 3453 ft | 17 kts | 57° |
| 2026-04-30 22:32 | -15.87519 | -47.91561 | 3463 ft | 25 kts | 355° |
| 2026-04-30 22:33 | -15.87271 | -47.91755 | 3474 ft | 13 kts | 356° |
| 2026-04-30 22:33 | -15.87252 | -47.91756 | 3475 ft | 0 kts | 355° |